sensor_id;sensor_type;location;lat;lon;timestamp;P1;durP1;ratioP1;P2;durP2;ratioP2
78430;SDS011;67727;50.236;22.452;2024-03-06T00:00:04;27.50;;;13.50;;
78430;SDS011;67727;50.236;22.452;2024-03-06T00:02:34;27.60;;;14.00;;
78430;SDS011;67727;50.236;22.452;2024-03-06T00:05:02;33.00;;;14.10;;
78430;SDS011;67727;50.236;22.452;2024-03-06T00:07:31;30.60;;;13.80;;
78430;SDS011;67727;50.236;22.452;2024-03-06T00:09:58;28.00;;;14.70;;
78430;SDS011;67727;50.236;22.452;2024-03-06T00:12:26;29.50;;;13.40;;
78430;SDS011;67727;50.236;22.452;2024-03-06T00:14:52;28.30;;;14.30;;
78430;SDS011;67727;50.236;22.452;2024-03-06T00:17:19;29.00;;;15.40;;
78430;SDS011;67727;50.236;22.452;2024-03-06T00:19:46;27.50;;;13.00;;
78430;SDS011;67727;50.236;22.452;2024-03-06T00:22:13;22.90;;;11.80;;
78430;SDS011;67727;50.236;22.452;2024-03-06T00:24:40;34.60;;;16.30;;
78430;SDS011;67727;50.236;22.452;2024-03-06T00:27:07;28.80;;;15.00;;
78430;SDS011;67727;50.236;22.452;2024-03-06T00:29:34;34.60;;;15.50;;
78430;SDS011;67727;50.236;22.452;2024-03-06T00:32:03;32.50;;;15.40;;
78430;SDS011;67727;50.236;22.452;2024-03-06T00:34:30;29.60;;;13.50;;
78430;SDS011;67727;50.236;22.452;2024-03-06T00:36:57;32.40;;;15.30;;
78430;SDS011;67727;50.236;22.452;2024-03-06T00:39:24;34.80;;;13.70;;
78430;SDS011;67727;50.236;22.452;2024-03-06T00:41:51;34.90;;;16.60;;
78430;SDS011;67727;50.236;22.452;2024-03-06T00:46:46;24.70;;;12.10;;
78430;SDS011;67727;50.236;22.452;2024-03-06T00:49:13;32.50;;;14.70;;
78430;SDS011;67727;50.236;22.452;2024-03-06T00:51:40;35.60;;;16.20;;
78430;SDS011;67727;50.236;22.452;2024-03-06T00:54:07;30.50;;;14.90;;
78430;SDS011;67727;50.236;22.452;2024-03-06T00:56:37;35.80;;;15.50;;
78430;SDS011;67727;50.236;22.452;2024-03-06T00:59:05;37.40;;;18.20;;
78430;SDS011;67727;50.236;22.452;2024-03-06T01:01:32;31.40;;;13.80;;
78430;SDS011;67727;50.236;22.452;2024-03-06T01:03:59;34.30;;;16.80;;
78430;SDS011;67727;50.236;22.452;2024-03-06T01:06:26;41.50;;;19.90;;
78430;SDS011;67727;50.236;22.452;2024-03-06T01:08:53;43.70;;;19.50;;
78430;SDS011;67727;50.236;22.452;2024-03-06T01:13:48;37.10;;;14.50;;
78430;SDS011;67727;50.236;22.452;2024-03-06T01:16:15;41.70;;;19.40;;
78430;SDS011;67727;50.236;22.452;2024-03-06T01:18:42;41.30;;;20.50;;
78430;SDS011;67727;50.236;22.452;2024-03-06T01:21:09;44.30;;;20.10;;
78430;SDS011;67727;50.236;22.452;2024-03-06T01:23:36;40.10;;;19.00;;
78430;SDS011;67727;50.236;22.452;2024-03-06T01:26:03;32.00;;;13.80;;
78430;SDS011;67727;50.236;22.452;2024-03-06T01:28:30;32.80;;;15.20;;
78430;SDS011;67727;50.236;22.452;2024-03-06T01:30:57;37.50;;;16.70;;
78430;SDS011;67727;50.236;22.452;2024-03-06T01:33:25;41.50;;;18.20;;
78430;SDS011;67727;50.236;22.452;2024-03-06T01:35:53;38.20;;;16.60;;
78430;SDS011;67727;50.236;22.452;2024-03-06T01:38:20;44.80;;;19.80;;
78430;SDS011;67727;50.236;22.452;2024-03-06T01:40:46;31.50;;;14.30;;
78430;SDS011;67727;50.236;22.452;2024-03-06T01:43:20;37.10;;;17.10;;
78430;SDS011;67727;50.236;22.452;2024-03-06T01:45:50;34.80;;;17.70;;
78430;SDS011;67727;50.236;22.452;2024-03-06T01:48:20;27.50;;;10.70;;
78430;SDS011;67727;50.236;22.452;2024-03-06T01:50:49;36.30;;;17.90;;
78430;SDS011;67727;50.236;22.452;2024-03-06T01:53:16;37.30;;;18.10;;
78430;SDS011;67727;50.236;22.452;2024-03-06T01:55:44;46.10;;;19.10;;
78430;SDS011;67727;50.236;22.452;2024-03-06T01:58:12;39.50;;;19.30;;
78430;SDS011;67727;50.236;22.452;2024-03-06T02:00:39;37.00;;;13.00;;
78430;SDS011;67727;50.236;22.452;2024-03-06T02:03:06;37.50;;;18.10;;
78430;SDS011;67727;50.236;22.452;2024-03-06T02:05:33;36.40;;;18.10;;
78430;SDS011;67727;50.236;22.452;2024-03-06T02:10:30;42.60;;;18.90;;
78430;SDS011;67727;50.236;22.452;2024-03-06T02:12:57;30.00;;;13.10;;
78430;SDS011;67727;50.236;22.452;2024-03-06T02:15:24;43.50;;;20.70;;
78430;SDS011;67727;50.236;22.452;2024-03-06T02:17:51;41.60;;;17.00;;
78430;SDS011;67727;50.236;22.452;2024-03-06T02:20:23;41.50;;;17.60;;
78430;SDS011;67727;50.236;22.452;2024-03-06T02:22:51;40.10;;;19.60;;
78430;SDS011;67727;50.236;22.452;2024-03-06T02:25:18;36.30;;;16.40;;
78430;SDS011;67727;50.236;22.452;2024-03-06T02:27:46;41.20;;;16.80;;
78430;SDS011;67727;50.236;22.452;2024-03-06T02:30:15;38.60;;;17.30;;
78430;SDS011;67727;50.236;22.452;2024-03-06T02:32:47;41.70;;;19.60;;
78430;SDS011;67727;50.236;22.452;2024-03-06T02:35:14;36.60;;;17.50;;
78430;SDS011;67727;50.236;22.452;2024-03-06T02:37:42;36.10;;;17.80;;
78430;SDS011;67727;50.236;22.452;2024-03-06T02:40:10;37.50;;;16.90;;
78430;SDS011;67727;50.236;22.452;2024-03-06T02:42:38;34.20;;;16.70;;
78430;SDS011;67727;50.236;22.452;2024-03-06T02:45:05;28.40;;;13.00;;
78430;SDS011;67727;50.236;22.452;2024-03-06T02:47:34;29.20;;;11.80;;
78430;SDS011;67727;50.236;22.452;2024-03-06T02:50:01;38.80;;;18.70;;
78430;SDS011;67727;50.236;22.452;2024-03-06T02:52:28;35.30;;;18.00;;
78430;SDS011;67727;50.236;22.452;2024-03-06T02:54:54;39.70;;;18.60;;
78430;SDS011;67727;50.236;22.452;2024-03-06T02:57:22;36.10;;;16.90;;
78430;SDS011;67727;50.236;22.452;2024-03-06T02:59:49;36.10;;;17.40;;
78430;SDS011;67727;50.236;22.452;2024-03-06T03:02:16;36.80;;;17.40;;
78430;SDS011;67727;50.236;22.452;2024-03-06T03:04:43;37.20;;;16.10;;
78430;SDS011;67727;50.236;22.452;2024-03-06T03:07:10;36.20;;;16.90;;
78430;SDS011;67727;50.236;22.452;2024-03-06T03:09:37;33.20;;;15.10;;
78430;SDS011;67727;50.236;22.452;2024-03-06T03:12:05;36.20;;;16.20;;
78430;SDS011;67727;50.236;22.452;2024-03-06T03:14:32;32.70;;;16.50;;
78430;SDS011;67727;50.236;22.452;2024-03-06T03:17:02;31.90;;;16.20;;
78430;SDS011;67727;50.236;22.452;2024-03-06T03:19:32;31.90;;;15.50;;
78430;SDS011;67727;50.236;22.452;2024-03-06T03:21:59;41.70;;;17.00;;
78430;SDS011;67727;50.236;22.452;2024-03-06T03:24:26;45.40;;;16.40;;
78430;SDS011;67727;50.236;22.452;2024-03-06T03:26:53;36.30;;;16.20;;
78430;SDS011;67727;50.236;22.452;2024-03-06T03:29:20;33.90;;;15.80;;
78430;SDS011;67727;50.236;22.452;2024-03-06T03:31:47;25.60;;;13.20;;
78430;SDS011;67727;50.236;22.452;2024-03-06T03:34:14;33.10;;;14.70;;
78430;SDS011;67727;50.236;22.452;2024-03-06T03:36:44;29.70;;;15.50;;
78430;SDS011;67727;50.236;22.452;2024-03-06T03:39:11;27.80;;;14.40;;
78430;SDS011;67727;50.236;22.452;2024-03-06T03:41:47;28.80;;;13.40;;
78430;SDS011;67727;50.236;22.452;2024-03-06T03:44:15;27.00;;;13.50;;
78430;SDS011;67727;50.236;22.452;2024-03-06T03:46:43;29.40;;;13.10;;
78430;SDS011;67727;50.236;22.452;2024-03-06T03:49:11;33.20;;;13.30;;
78430;SDS011;67727;50.236;22.452;2024-03-06T03:51:38;37.40;;;16.10;;
78430;SDS011;67727;50.236;22.452;2024-03-06T03:54:05;33.50;;;13.90;;
78430;SDS011;67727;50.236;22.452;2024-03-06T03:56:33;41.60;;;16.90;;
78430;SDS011;67727;50.236;22.452;2024-03-06T03:59:01;39.10;;;18.00;;
78430;SDS011;67727;50.236;22.452;2024-03-06T04:03:56;29.20;;;13.40;;
78430;SDS011;67727;50.236;22.452;2024-03-06T04:06:22;30.60;;;15.30;;
78430;SDS011;67727;50.236;22.452;2024-03-06T04:08:50;38.10;;;17.70;;
78430;SDS011;67727;50.236;22.452;2024-03-06T04:11:17;33.40;;;15.70;;
78430;SDS011;67727;50.236;22.452;2024-03-06T04:13:44;37.60;;;15.90;;
78430;SDS011;67727;50.236;22.452;2024-03-06T04:16:15;45.60;;;20.00;;
78430;SDS011;67727;50.236;22.452;2024-03-06T04:18:43;42.10;;;20.10;;
78430;SDS011;67727;50.236;22.452;2024-03-06T04:21:11;45.80;;;21.60;;
78430;SDS011;67727;50.236;22.452;2024-03-06T04:23:41;48.20;;;22.10;;
78430;SDS011;67727;50.236;22.452;2024-03-06T04:26:08;44.80;;;20.20;;
78430;SDS011;67727;50.236;22.452;2024-03-06T04:28:35;44.40;;;18.60;;
78430;SDS011;67727;50.236;22.452;2024-03-06T04:31:02;43.00;;;19.70;;
78430;SDS011;67727;50.236;22.452;2024-03-06T04:33:29;47.00;;;20.10;;
78430;SDS011;67727;50.236;22.452;2024-03-06T04:35:56;42.20;;;19.60;;
78430;SDS011;67727;50.236;22.452;2024-03-06T04:38:23;38.60;;;18.00;;
78430;SDS011;67727;50.236;22.452;2024-03-06T04:40:50;43.30;;;21.20;;
78430;SDS011;67727;50.236;22.452;2024-03-06T04:43:17;47.80;;;21.30;;
78430;SDS011;67727;50.236;22.452;2024-03-06T04:45:44;43.10;;;19.00;;
78430;SDS011;67727;50.236;22.452;2024-03-06T04:48:11;45.30;;;18.80;;
78430;SDS011;67727;50.236;22.452;2024-03-06T04:50:38;51.20;;;20.20;;
78430;SDS011;67727;50.236;22.452;2024-03-06T04:53:05;57.00;;;21.30;;
78430;SDS011;67727;50.236;22.452;2024-03-06T04:55:32;51.60;;;21.40;;
78430;SDS011;67727;50.236;22.452;2024-03-06T04:57:59;46.10;;;19.70;;
78430;SDS011;67727;50.236;22.452;2024-03-06T05:00:26;38.10;;;18.50;;
78430;SDS011;67727;50.236;22.452;2024-03-06T05:02:55;42.40;;;19.20;;
78430;SDS011;67727;50.236;22.452;2024-03-06T05:05:22;46.10;;;22.90;;
78430;SDS011;67727;50.236;22.452;2024-03-06T05:07:51;36.70;;;16.80;;
78430;SDS011;67727;50.236;22.452;2024-03-06T05:10:18;46.40;;;20.00;;
78430;SDS011;67727;50.236;22.452;2024-03-06T05:12:45;48.20;;;21.10;;
78430;SDS011;67727;50.236;22.452;2024-03-06T05:15:12;39.30;;;18.10;;
78430;SDS011;67727;50.236;22.452;2024-03-06T05:17:39;31.50;;;16.10;;
78430;SDS011;67727;50.236;22.452;2024-03-06T05:20:06;43.20;;;19.30;;
78430;SDS011;67727;50.236;22.452;2024-03-06T05:22:34;37.10;;;15.00;;
78430;SDS011;67727;50.236;22.452;2024-03-06T05:25:01;34.80;;;15.80;;
78430;SDS011;67727;50.236;22.452;2024-03-06T05:27:27;36.90;;;18.00;;
78430;SDS011;67727;50.236;22.452;2024-03-06T05:29:55;24.90;;;11.20;;
78430;SDS011;67727;50.236;22.452;2024-03-06T05:32:22;33.90;;;15.80;;
78430;SDS011;67727;50.236;22.452;2024-03-06T05:34:49;32.60;;;13.90;;
78430;SDS011;67727;50.236;22.452;2024-03-06T05:37:16;34.60;;;16.60;;
78430;SDS011;67727;50.236;22.452;2024-03-06T05:39:43;36.80;;;16.90;;
78430;SDS011;67727;50.236;22.452;2024-03-06T05:42:10;45.60;;;18.30;;
78430;SDS011;67727;50.236;22.452;2024-03-06T05:44:38;37.80;;;15.80;;
78430;SDS011;67727;50.236;22.452;2024-03-06T05:47:05;44.00;;;18.70;;
78430;SDS011;67727;50.236;22.452;2024-03-06T05:49:33;38.10;;;18.50;;
78430;SDS011;67727;50.236;22.452;2024-03-06T05:52:01;35.70;;;16.10;;
78430;SDS011;67727;50.236;22.452;2024-03-06T05:54:29;42.30;;;19.30;;
78430;SDS011;67727;50.236;22.452;2024-03-06T05:56:59;37.80;;;17.90;;
78430;SDS011;67727;50.236;22.452;2024-03-06T05:59:26;29.10;;;12.90;;
78430;SDS011;67727;50.236;22.452;2024-03-06T06:01:53;29.70;;;14.00;;
78430;SDS011;67727;50.236;22.452;2024-03-06T06:04:20;29.30;;;13.60;;
78430;SDS011;67727;50.236;22.452;2024-03-06T06:06:48;28.30;;;14.30;;
78430;SDS011;67727;50.236;22.452;2024-03-06T06:09:15;27.50;;;14.90;;
78430;SDS011;67727;50.236;22.452;2024-03-06T06:11:42;33.10;;;13.70;;
78430;SDS011;67727;50.236;22.452;2024-03-06T06:14:10;37.00;;;16.10;;
78430;SDS011;67727;50.236;22.452;2024-03-06T06:16:37;35.70;;;15.80;;
78430;SDS011;67727;50.236;22.452;2024-03-06T06:19:07;37.00;;;15.50;;
78430;SDS011;67727;50.236;22.452;2024-03-06T06:21:33;33.50;;;15.70;;
78430;SDS011;67727;50.236;22.452;2024-03-06T06:24:03;34.20;;;16.30;;
78430;SDS011;67727;50.236;22.452;2024-03-06T06:26:30;36.10;;;15.80;;
78430;SDS011;67727;50.236;22.452;2024-03-06T06:28:58;38.40;;;16.90;;
78430;SDS011;67727;50.236;22.452;2024-03-06T06:31:25;30.20;;;14.80;;
78430;SDS011;67727;50.236;22.452;2024-03-06T06:36:20;33.90;;;14.60;;
78430;SDS011;67727;50.236;22.452;2024-03-06T06:38:47;47.70;;;22.70;;
78430;SDS011;67727;50.236;22.452;2024-03-06T06:41:15;27.00;;;15.10;;
78430;SDS011;67727;50.236;22.452;2024-03-06T06:43:43;32.80;;;16.40;;
78430;SDS011;67727;50.236;22.452;2024-03-06T06:46:10;33.10;;;17.50;;
78430;SDS011;67727;50.236;22.452;2024-03-06T06:48:37;34.60;;;18.10;;
78430;SDS011;67727;50.236;22.452;2024-03-06T06:51:04;32.20;;;16.40;;
78430;SDS011;67727;50.236;22.452;2024-03-06T06:53:31;39.60;;;20.00;;
78430;SDS011;67727;50.236;22.452;2024-03-06T06:55:58;34.80;;;17.90;;
78430;SDS011;67727;50.236;22.452;2024-03-06T06:58:25;35.40;;;16.40;;
78430;SDS011;67727;50.236;22.452;2024-03-06T07:00:53;39.40;;;20.20;;
78430;SDS011;67727;50.236;22.452;2024-03-06T07:03:20;39.50;;;18.90;;
78430;SDS011;67727;50.236;22.452;2024-03-06T07:05:50;37.40;;;19.10;;
78430;SDS011;67727;50.236;22.452;2024-03-06T07:08:16;46.00;;;21.20;;
78430;SDS011;67727;50.236;22.452;2024-03-06T07:10:43;49.00;;;25.50;;
78430;SDS011;67727;50.236;22.452;2024-03-06T07:13:10;58.40;;;26.90;;
78430;SDS011;67727;50.236;22.452;2024-03-06T07:15:37;53.00;;;24.90;;
78430;SDS011;67727;50.236;22.452;2024-03-06T07:18:04;39.60;;;19.40;;
78430;SDS011;67727;50.236;22.452;2024-03-06T07:20:31;43.60;;;24.50;;
78430;SDS011;67727;50.236;22.452;2024-03-06T07:22:58;52.70;;;26.40;;
78430;SDS011;67727;50.236;22.452;2024-03-06T07:25:25;53.20;;;26.70;;
78430;SDS011;67727;50.236;22.452;2024-03-06T07:27:52;48.20;;;23.10;;
78430;SDS011;67727;50.236;22.452;2024-03-06T07:30:19;32.90;;;15.60;;
78430;SDS011;67727;50.236;22.452;2024-03-06T07:32:46;44.70;;;20.70;;
78430;SDS011;67727;50.236;22.452;2024-03-06T07:35:13;45.70;;;22.20;;
78430;SDS011;67727;50.236;22.452;2024-03-06T07:37:40;35.10;;;17.50;;
78430;SDS011;67727;50.236;22.452;2024-03-06T07:40:08;40.80;;;18.50;;
78430;SDS011;67727;50.236;22.452;2024-03-06T07:42:35;34.30;;;17.20;;
78430;SDS011;67727;50.236;22.452;2024-03-06T07:45:05;42.70;;;18.40;;
78430;SDS011;67727;50.236;22.452;2024-03-06T07:47:35;45.40;;;21.80;;
78430;SDS011;67727;50.236;22.452;2024-03-06T07:50:04;48.00;;;23.10;;
78430;SDS011;67727;50.236;22.452;2024-03-06T07:52:32;45.80;;;21.20;;
78430;SDS011;67727;50.236;22.452;2024-03-06T07:54:58;43.80;;;22.60;;
78430;SDS011;67727;50.236;22.452;2024-03-06T07:57:24;44.90;;;19.90;;
78430;SDS011;67727;50.236;22.452;2024-03-06T07:59:50;31.70;;;17.30;;
78430;SDS011;67727;50.236;22.452;2024-03-06T08:02:17;45.90;;;22.90;;
78430;SDS011;67727;50.236;22.452;2024-03-06T08:04:43;40.70;;;19.90;;
78430;SDS011;67727;50.236;22.452;2024-03-06T08:07:09;50.70;;;22.20;;
78430;SDS011;67727;50.236;22.452;2024-03-06T08:09:35;50.10;;;23.10;;
78430;SDS011;67727;50.236;22.452;2024-03-06T08:12:01;41.70;;;20.10;;
78430;SDS011;67727;50.236;22.452;2024-03-06T08:14:27;41.30;;;20.10;;
78430;SDS011;67727;50.236;22.452;2024-03-06T08:16:53;42.20;;;21.50;;
78430;SDS011;67727;50.236;22.452;2024-03-06T08:19:19;37.50;;;17.20;;
78430;SDS011;67727;50.236;22.452;2024-03-06T08:21:45;57.00;;;26.30;;
78430;SDS011;67727;50.236;22.452;2024-03-06T08:24:11;59.90;;;26.00;;
78430;SDS011;67727;50.236;22.452;2024-03-06T08:26:38;45.50;;;20.20;;
78430;SDS011;67727;50.236;22.452;2024-03-06T08:29:03;64.70;;;28.40;;
78430;SDS011;67727;50.236;22.452;2024-03-06T08:31:29;76.90;;;33.90;;
78430;SDS011;67727;50.236;22.452;2024-03-06T08:33:56;63.00;;;25.60;;
78430;SDS011;67727;50.236;22.452;2024-03-06T08:36:22;58.30;;;25.40;;
78430;SDS011;67727;50.236;22.452;2024-03-06T08:38:49;63.50;;;27.50;;
78430;SDS011;67727;50.236;22.452;2024-03-06T08:41:15;97.90;;;44.70;;
78430;SDS011;67727;50.236;22.452;2024-03-06T08:43:41;67.90;;;30.20;;
78430;SDS011;67727;50.236;22.452;2024-03-06T08:46:06;62.30;;;28.40;;
78430;SDS011;67727;50.236;22.452;2024-03-06T08:48:32;63.30;;;27.00;;
78430;SDS011;67727;50.236;22.452;2024-03-06T08:50:58;52.10;;;25.60;;
78430;SDS011;67727;50.236;22.452;2024-03-06T08:53:24;48.60;;;22.00;;
78430;SDS011;67727;50.236;22.452;2024-03-06T08:55:50;48.40;;;23.20;;
78430;SDS011;67727;50.236;22.452;2024-03-06T08:58:16;52.00;;;22.00;;
78430;SDS011;67727;50.236;22.452;2024-03-06T09:00:41;60.10;;;25.40;;
78430;SDS011;67727;50.236;22.452;2024-03-06T09:03:07;62.90;;;29.80;;
78430;SDS011;67727;50.236;22.452;2024-03-06T09:05:33;52.60;;;25.30;;
78430;SDS011;67727;50.236;22.452;2024-03-06T09:07:59;40.20;;;20.90;;
78430;SDS011;67727;50.236;22.452;2024-03-06T09:10:25;40.80;;;19.80;;
78430;SDS011;67727;50.236;22.452;2024-03-06T09:12:50;64.10;;;27.10;;
78430;SDS011;67727;50.236;22.452;2024-03-06T09:15:16;66.40;;;30.50;;
78430;SDS011;67727;50.236;22.452;2024-03-06T09:17:43;38.70;;;18.70;;
78430;SDS011;67727;50.236;22.452;2024-03-06T09:20:10;36.80;;;18.70;;
78430;SDS011;67727;50.236;22.452;2024-03-06T09:22:37;43.00;;;19.80;;
78430;SDS011;67727;50.236;22.452;2024-03-06T09:25:04;47.40;;;20.80;;
78430;SDS011;67727;50.236;22.452;2024-03-06T09:27:31;50.10;;;23.00;;
78430;SDS011;67727;50.236;22.452;2024-03-06T09:29:57;47.10;;;24.80;;
78430;SDS011;67727;50.236;22.452;2024-03-06T09:32:23;44.90;;;22.40;;
78430;SDS011;67727;50.236;22.452;2024-03-06T09:34:50;38.50;;;19.00;;
78430;SDS011;67727;50.236;22.452;2024-03-06T09:37:16;34.20;;;16.60;;
78430;SDS011;67727;50.236;22.452;2024-03-06T09:39:42;38.30;;;18.30;;
78430;SDS011;67727;50.236;22.452;2024-03-06T09:42:07;34.80;;;18.70;;
78430;SDS011;67727;50.236;22.452;2024-03-06T09:44:34;33.30;;;15.80;;
78430;SDS011;67727;50.236;22.452;2024-03-06T09:47:02;42.10;;;19.40;;
78430;SDS011;67727;50.236;22.452;2024-03-06T09:49:32;49.30;;;20.80;;
78430;SDS011;67727;50.236;22.452;2024-03-06T09:52:00;54.20;;;26.70;;
78430;SDS011;67727;50.236;22.452;2024-03-06T09:54:28;52.20;;;25.70;;
78430;SDS011;67727;50.236;22.452;2024-03-06T09:56:55;74.70;;;28.00;;
78430;SDS011;67727;50.236;22.452;2024-03-06T09:59:22;84.80;;;34.10;;
78430;SDS011;67727;50.236;22.452;2024-03-06T10:01:55;81.10;;;33.20;;
78430;SDS011;67727;50.236;22.452;2024-03-06T10:04:23;36.40;;;18.00;;
78430;SDS011;67727;50.236;22.452;2024-03-06T10:06:50;51.00;;;23.70;;
78430;SDS011;67727;50.236;22.452;2024-03-06T10:09:20;47.80;;;21.50;;
78430;SDS011;67727;50.236;22.452;2024-03-06T10:11:46;53.20;;;23.50;;
78430;SDS011;67727;50.236;22.452;2024-03-06T10:14:12;48.90;;;22.10;;
78430;SDS011;67727;50.236;22.452;2024-03-06T10:16:51;36.10;;;19.60;;
78430;SDS011;67727;50.236;22.452;2024-03-06T10:19:22;58.10;;;24.20;;
78430;SDS011;67727;50.236;22.452;2024-03-06T10:26:46;31.40;;;15.80;;
78430;SDS011;67727;50.236;22.452;2024-03-06T10:29:16;44.10;;;22.70;;
78430;SDS011;67727;50.236;22.452;2024-03-06T10:34:20;35.40;;;18.60;;
78430;SDS011;67727;50.236;22.452;2024-03-06T10:36:57;48.50;;;23.80;;
78430;SDS011;67727;50.236;22.452;2024-03-06T10:39:24;46.10;;;22.10;;
78430;SDS011;67727;50.236;22.452;2024-03-06T10:41:54;42.30;;;23.40;;
78430;SDS011;67727;50.236;22.452;2024-03-06T10:44:22;57.80;;;27.70;;
78430;SDS011;67727;50.236;22.452;2024-03-06T10:47:01;61.70;;;34.80;;
78430;SDS011;67727;50.236;22.452;2024-03-06T10:49:29;30.30;;;17.60;;
78430;SDS011;67727;50.236;22.452;2024-03-06T10:51:59;32.90;;;17.90;;
78430;SDS011;67727;50.236;22.452;2024-03-06T10:54:28;29.40;;;16.70;;
78430;SDS011;67727;50.236;22.452;2024-03-06T10:57:00;27.30;;;15.90;;
78430;SDS011;67727;50.236;22.452;2024-03-06T10:59:27;31.50;;;17.70;;
78430;SDS011;67727;50.236;22.452;2024-03-06T11:01:54;29.20;;;15.90;;
78430;SDS011;67727;50.236;22.452;2024-03-06T11:04:31;34.80;;;17.80;;
78430;SDS011;67727;50.236;22.452;2024-03-06T11:07:00;32.90;;;18.30;;
78430;SDS011;67727;50.236;22.452;2024-03-06T11:09:28;32.60;;;17.20;;
78430;SDS011;67727;50.236;22.452;2024-03-06T11:12:00;29.20;;;16.90;;
78430;SDS011;67727;50.236;22.452;2024-03-06T11:14:27;34.40;;;19.90;;
78430;SDS011;67727;50.236;22.452;2024-03-06T11:17:03;39.00;;;21.10;;
78430;SDS011;67727;50.236;22.452;2024-03-06T11:19:30;42.60;;;22.00;;
78430;SDS011;67727;50.236;22.452;2024-03-06T11:21:56;46.70;;;24.60;;
78430;SDS011;67727;50.236;22.452;2024-03-06T11:24:24;45.60;;;23.50;;
78430;SDS011;67727;50.236;22.452;2024-03-06T11:26:59;35.60;;;19.90;;
78430;SDS011;67727;50.236;22.452;2024-03-06T11:32:38;34.80;;;17.80;;
78430;SDS011;67727;50.236;22.452;2024-03-06T11:35:28;38.00;;;19.70;;
78430;SDS011;67727;50.236;22.452;2024-03-06T11:37:54;37.60;;;20.80;;
78430;SDS011;67727;50.236;22.452;2024-03-06T11:40:24;37.10;;;19.70;;
78430;SDS011;67727;50.236;22.452;2024-03-06T11:42:50;36.80;;;20.10;;
78430;SDS011;67727;50.236;22.452;2024-03-06T11:45:17;30.10;;;19.60;;
78430;SDS011;67727;50.236;22.452;2024-03-06T11:47:57;44.20;;;20.70;;
78430;SDS011;67727;50.236;22.452;2024-03-06T11:50:25;35.10;;;18.80;;
78430;SDS011;67727;50.236;22.452;2024-03-06T11:55:21;44.30;;;23.10;;
78430;SDS011;67727;50.236;22.452;2024-03-06T11:57:47;47.70;;;23.50;;
78430;SDS011;67727;50.236;22.452;2024-03-06T12:00:14;52.10;;;25.20;;
78430;SDS011;67727;50.236;22.452;2024-03-06T12:02:40;62.90;;;33.70;;
78430;SDS011;67727;50.236;22.452;2024-03-06T12:05:07;65.20;;;32.30;;
78430;SDS011;67727;50.236;22.452;2024-03-06T12:10:36;51.30;;;25.90;;
78430;SDS011;67727;50.236;22.452;2024-03-06T12:13:03;53.90;;;26.10;;
78430;SDS011;67727;50.236;22.452;2024-03-06T12:15:29;42.50;;;23.10;;
78430;SDS011;67727;50.236;22.452;2024-03-06T12:17:55;52.30;;;26.90;;
78430;SDS011;67727;50.236;22.452;2024-03-06T12:20:20;57.20;;;28.60;;
78430;SDS011;67727;50.236;22.452;2024-03-06T12:22:50;59.40;;;30.40;;
78430;SDS011;67727;50.236;22.452;2024-03-06T12:25:20;50.70;;;27.60;;
78430;SDS011;67727;50.236;22.452;2024-03-06T12:27:47;41.80;;;23.90;;
78430;SDS011;67727;50.236;22.452;2024-03-06T12:30:18;53.40;;;26.40;;
78430;SDS011;67727;50.236;22.452;2024-03-06T12:33:04;44.30;;;23.80;;
78430;SDS011;67727;50.236;22.452;2024-03-06T12:35:30;57.00;;;29.00;;
78430;SDS011;67727;50.236;22.452;2024-03-06T12:37:56;47.50;;;24.00;;
78430;SDS011;67727;50.236;22.452;2024-03-06T12:40:23;49.20;;;24.60;;
78430;SDS011;67727;50.236;22.452;2024-03-06T12:42:49;47.70;;;26.40;;
78430;SDS011;67727;50.236;22.452;2024-03-06T12:47:43;42.00;;;19.40;;
78430;SDS011;67727;50.236;22.452;2024-03-06T12:50:11;29.50;;;13.80;;
78430;SDS011;67727;50.236;22.452;2024-03-06T12:52:37;34.40;;;19.10;;
78430;SDS011;67727;50.236;22.452;2024-03-06T12:55:03;35.00;;;19.40;;
78430;SDS011;67727;50.236;22.452;2024-03-06T12:57:34;37.60;;;19.60;;
78430;SDS011;67727;50.236;22.452;2024-03-06T13:00:00;43.80;;;20.90;;
78430;SDS011;67727;50.236;22.452;2024-03-06T13:02:26;38.70;;;19.60;;
78430;SDS011;67727;50.236;22.452;2024-03-06T13:04:52;31.30;;;18.60;;
78430;SDS011;67727;50.236;22.452;2024-03-06T13:07:18;42.20;;;20.60;;
78430;SDS011;67727;50.236;22.452;2024-03-06T13:09:44;39.90;;;20.00;;
78430;SDS011;67727;50.236;22.452;2024-03-06T13:12:10;32.60;;;18.40;;
78430;SDS011;67727;50.236;22.452;2024-03-06T13:14:36;30.20;;;16.80;;
78430;SDS011;67727;50.236;22.452;2024-03-06T13:17:02;29.60;;;15.10;;
78430;SDS011;67727;50.236;22.452;2024-03-06T13:19:28;25.00;;;14.30;;
78430;SDS011;67727;50.236;22.452;2024-03-06T13:21:54;31.20;;;18.10;;
78430;SDS011;67727;50.236;22.452;2024-03-06T13:24:20;26.90;;;15.50;;
78430;SDS011;67727;50.236;22.452;2024-03-06T13:26:46;23.40;;;13.40;;
78430;SDS011;67727;50.236;22.452;2024-03-06T13:29:12;20.50;;;12.30;;
78430;SDS011;67727;50.236;22.452;2024-03-06T13:31:39;22.80;;;13.10;;
78430;SDS011;67727;50.236;22.452;2024-03-06T13:34:05;20.60;;;11.00;;
78430;SDS011;67727;50.236;22.452;2024-03-06T13:36:31;15.20;;;9.40;;
78430;SDS011;67727;50.236;22.452;2024-03-06T13:38:57;17.40;;;11.40;;
78430;SDS011;67727;50.236;22.452;2024-03-06T13:41:23;26.80;;;13.10;;
78430;SDS011;67727;50.236;22.452;2024-03-06T13:43:49;22.20;;;15.10;;
78430;SDS011;67727;50.236;22.452;2024-03-06T13:46:15;26.10;;;12.20;;
78430;SDS011;67727;50.236;22.452;2024-03-06T13:48:41;16.30;;;8.80;;
78430;SDS011;67727;50.236;22.452;2024-03-06T13:51:07;20.00;;;10.90;;
78430;SDS011;67727;50.236;22.452;2024-03-06T13:53:33;18.40;;;11.10;;
78430;SDS011;67727;50.236;22.452;2024-03-06T13:55:59;18.30;;;10.00;;
78430;SDS011;67727;50.236;22.452;2024-03-06T13:58:25;19.60;;;12.00;;
78430;SDS011;67727;50.236;22.452;2024-03-06T14:00:51;24.70;;;12.30;;
78430;SDS011;67727;50.236;22.452;2024-03-06T14:03:17;27.80;;;14.00;;
78430;SDS011;67727;50.236;22.452;2024-03-06T14:05:43;22.40;;;10.70;;
78430;SDS011;67727;50.236;22.452;2024-03-06T14:08:09;14.50;;;7.60;;
78430;SDS011;67727;50.236;22.452;2024-03-06T14:10:40;20.80;;;10.30;;
78430;SDS011;67727;50.236;22.452;2024-03-06T14:13:06;10.90;;;7.50;;
78430;SDS011;67727;50.236;22.452;2024-03-06T14:15:34;16.50;;;9.90;;
78430;SDS011;67727;50.236;22.452;2024-03-06T14:18:00;13.10;;;7.10;;
78430;SDS011;67727;50.236;22.452;2024-03-06T14:20:27;21.00;;;10.80;;
78430;SDS011;67727;50.236;22.452;2024-03-06T14:22:53;19.30;;;9.00;;
78430;SDS011;67727;50.236;22.452;2024-03-06T14:25:19;14.50;;;7.20;;
78430;SDS011;67727;50.236;22.452;2024-03-06T14:27:46;14.60;;;6.10;;
78430;SDS011;67727;50.236;22.452;2024-03-06T14:30:12;19.00;;;8.10;;
78430;SDS011;67727;50.236;22.452;2024-03-06T14:35:06;9.70;;;5.60;;
78430;SDS011;67727;50.236;22.452;2024-03-06T14:37:32;8.60;;;5.00;;
78430;SDS011;67727;50.236;22.452;2024-03-06T14:39:58;11.50;;;6.40;;
78430;SDS011;67727;50.236;22.452;2024-03-06T14:42:24;19.50;;;9.00;;